sensor_id;sensor_type;location;lat;lon;timestamp;pressure;altitude;pressure_sealevel;temperature;humidity
6506;BME280;3286;49.858;8.768;2024-02-26T00:01:09;97362.59;;;9.11;48.84
6506;BME280;3286;49.858;8.768;2024-02-26T00:03:35;97361.94;;;9.75;47.97
6506;BME280;3286;49.858;8.768;2024-02-26T00:06:02;97358.50;;;9.09;48.62
6506;BME280;3286;49.858;8.768;2024-02-26T00:08:29;97340.59;;;9.41;47.98
6506;BME280;3286;49.858;8.768;2024-02-26T00:10:55;97336.16;;;10.27;46.24
6506;BME280;3286;49.858;8.768;2024-02-26T00:13:23;97322.47;;;9.81;47.04
6506;BME280;3286;49.858;8.768;2024-02-26T00:15:50;97314.56;;;9.81;46.74
6506;BME280;3286;49.858;8.768;2024-02-26T00:18:17;97318.72;;;9.69;46.68
6506;BME280;3286;49.858;8.768;2024-02-26T00:20:43;97324.78;;;9.91;47.39
6506;BME280;3286;49.858;8.768;2024-02-26T00:23:10;97319.75;;;9.46;47.46
6506;BME280;3286;49.858;8.768;2024-02-26T00:25:36;97313.16;;;9.57;48.07
6506;BME280;3286;49.858;8.768;2024-02-26T00:28:04;97303.41;;;9.57;47.79
6506;BME280;3286;49.858;8.768;2024-02-26T00:30:32;97297.50;;;9.55;47.70
6506;BME280;3286;49.858;8.768;2024-02-26T00:32:59;97302.19;;;9.32;48.53
6506;BME280;3286;49.858;8.768;2024-02-26T00:35:25;97309.88;;;9.55;48.22
6506;BME280;3286;49.858;8.768;2024-02-26T00:37:52;97305.19;;;9.79;47.54
6506;BME280;3286;49.858;8.768;2024-02-26T00:40:19;97298.63;;;9.96;47.18
6506;BME280;3286;49.858;8.768;2024-02-26T00:42:45;97289.63;;;9.84;46.97
6506;BME280;3286;49.858;8.768;2024-02-26T00:45:13;97303.63;;;9.34;48.20
6506;BME280;3286;49.858;8.768;2024-02-26T00:47:42;97306.03;;;9.57;48.86
6506;BME280;3286;49.858;8.768;2024-02-26T00:50:10;97317.03;;;8.96;50.18
6506;BME280;3286;49.858;8.768;2024-02-26T00:52:37;97307.41;;;9.25;50.20
6506;BME280;3286;49.858;8.768;2024-02-26T00:55:04;97306.34;;;8.82;50.56
6506;BME280;3286;49.858;8.768;2024-02-26T00:57:31;97315.00;;;8.76;50.64
6506;BME280;3286;49.858;8.768;2024-02-26T00:59:58;97325.41;;;9.21;49.63
6506;BME280;3286;49.858;8.768;2024-02-26T01:02:26;97312.50;;;8.53;51.42
6506;BME280;3286;49.858;8.768;2024-02-26T01:04:54;97316.38;;;8.72;49.94
6506;BME280;3286;49.858;8.768;2024-02-26T01:07:20;97332.34;;;9.29;50.19
6506;BME280;3286;49.858;8.768;2024-02-26T01:09:47;97325.34;;;9.15;50.46
6506;BME280;3286;49.858;8.768;2024-02-26T01:12:14;97314.59;;;9.16;49.15
6506;BME280;3286;49.858;8.768;2024-02-26T01:14:40;97316.75;;;8.39;50.87
6506;BME280;3286;49.858;8.768;2024-02-26T01:17:07;97304.44;;;7.56;53.71
6506;BME280;3286;49.858;8.768;2024-02-26T01:19:34;97273.13;;;7.31;54.63
6506;BME280;3286;49.858;8.768;2024-02-26T01:22:02;97287.38;;;8.20;51.97
6506;BME280;3286;49.858;8.768;2024-02-26T01:24:29;97316.13;;;8.22;51.77
6506;BME280;3286;49.858;8.768;2024-02-26T01:26:55;97304.59;;;8.68;51.03
6506;BME280;3286;49.858;8.768;2024-02-26T01:29:22;97295.34;;;9.16;49.17
6506;BME280;3286;49.858;8.768;2024-02-26T01:31:49;97307.28;;;9.11;49.62
6506;BME280;3286;49.858;8.768;2024-02-26T01:34:16;97302.00;;;9.33;48.64
6506;BME280;3286;49.858;8.768;2024-02-26T01:36:43;97291.97;;;9.00;49.62
6506;BME280;3286;49.858;8.768;2024-02-26T01:39:11;97312.97;;;9.15;49.11
6506;BME280;3286;49.858;8.768;2024-02-26T01:41:38;97303.19;;;9.81;47.35
6506;BME280;3286;49.858;8.768;2024-02-26T01:44:06;97323.13;;;8.30;51.80
6506;BME280;3286;49.858;8.768;2024-02-26T01:46:34;97317.13;;;8.66;50.41
6506;BME280;3286;49.858;8.768;2024-02-26T01:49:01;97334.66;;;8.59;51.01
6506;BME280;3286;49.858;8.768;2024-02-26T01:51:28;97334.44;;;8.45;51.10
6506;BME280;3286;49.858;8.768;2024-02-26T01:53:56;97328.38;;;8.15;51.69
6506;BME280;3286;49.858;8.768;2024-02-26T01:56:26;97321.00;;;7.95;51.92
6506;BME280;3286;49.858;8.768;2024-02-26T01:58:56;97306.25;;;8.54;50.67
6506;BME280;3286;49.858;8.768;2024-02-26T02:01:25;97315.41;;;7.98;52.12
6506;BME280;3286;49.858;8.768;2024-02-26T02:03:53;97337.06;;;9.12;50.09
6506;BME280;3286;49.858;8.768;2024-02-26T02:06:20;97343.81;;;8.99;49.77
6506;BME280;3286;49.858;8.768;2024-02-26T02:08:47;97330.72;;;8.69;50.80
6506;BME280;3286;49.858;8.768;2024-02-26T02:11:14;97313.34;;;8.90;51.03
6506;BME280;3286;49.858;8.768;2024-02-26T02:13:42;97329.47;;;9.02;49.76
6506;BME280;3286;49.858;8.768;2024-02-26T02:16:09;97332.72;;;9.69;48.66
6506;BME280;3286;49.858;8.768;2024-02-26T02:18:36;97330.53;;;9.51;48.16
6506;BME280;3286;49.858;8.768;2024-02-26T02:21:04;97329.78;;;9.36;48.63
6506;BME280;3286;49.858;8.768;2024-02-26T02:23:30;97323.81;;;9.27;48.58
6506;BME280;3286;49.858;8.768;2024-02-26T02:28:50;97325.56;;;9.63;48.23
6506;BME280;3286;49.858;8.768;2024-02-26T02:31:34;97333.47;;;9.92;47.84
6506;BME280;3286;49.858;8.768;2024-02-26T02:34:15;97340.81;;;9.46;48.30
6506;BME280;3286;49.858;8.768;2024-02-26T02:36:51;97336.06;;;9.35;48.91
6506;BME280;3286;49.858;8.768;2024-02-26T02:39:18;97348.94;;;9.45;48.68
6506;BME280;3286;49.858;8.768;2024-02-26T02:41:45;97347.50;;;9.64;48.25
6506;BME280;3286;49.858;8.768;2024-02-26T02:44:12;97343.16;;;9.56;48.60
6506;BME280;3286;49.858;8.768;2024-02-26T02:46:39;97340.28;;;10.08;47.84
6506;BME280;3286;49.858;8.768;2024-02-26T02:49:08;97341.28;;;9.50;48.47
6506;BME280;3286;49.858;8.768;2024-02-26T02:51:35;97346.31;;;9.45;48.85
6506;BME280;3286;49.858;8.768;2024-02-26T02:54:04;97354.88;;;9.75;48.94
6506;BME280;3286;49.858;8.768;2024-02-26T02:56:30;97343.72;;;9.51;49.31
6506;BME280;3286;49.858;8.768;2024-02-26T02:58:59;97353.38;;;9.66;48.66
6506;BME280;3286;49.858;8.768;2024-02-26T03:01:26;97365.56;;;9.45;50.05
6506;BME280;3286;49.858;8.768;2024-02-26T03:03:54;97357.91;;;9.50;49.83
6506;BME280;3286;49.858;8.768;2024-02-26T03:06:20;97365.88;;;9.57;49.50
6506;BME280;3286;49.858;8.768;2024-02-26T03:08:47;97355.50;;;9.12;50.67
6506;BME280;3286;49.858;8.768;2024-02-26T03:11:15;97361.28;;;9.44;50.08
6506;BME280;3286;49.858;8.768;2024-02-26T03:13:42;97363.78;;;9.52;49.47
6506;BME280;3286;49.858;8.768;2024-02-26T03:16:09;97375.59;;;9.56;48.76
6506;BME280;3286;49.858;8.768;2024-02-26T03:18:35;97360.88;;;8.67;50.06
6506;BME280;3286;49.858;8.768;2024-02-26T03:21:02;97361.94;;;8.27;51.80
6506;BME280;3286;49.858;8.768;2024-02-26T03:23:29;97367.94;;;8.36;51.76
6506;BME280;3286;49.858;8.768;2024-02-26T03:25:58;97371.59;;;7.12;55.02
6506;BME280;3286;49.858;8.768;2024-02-26T03:28:26;97364.25;;;8.61;50.82
6506;BME280;3286;49.858;8.768;2024-02-26T03:30:52;97366.09;;;7.68;54.43
6506;BME280;3286;49.858;8.768;2024-02-26T03:33:19;97365.31;;;8.51;52.21
6506;BME280;3286;49.858;8.768;2024-02-26T03:35:45;97377.06;;;9.01;50.04
6506;BME280;3286;49.858;8.768;2024-02-26T03:38:12;97367.38;;;9.45;50.29
6506;BME280;3286;49.858;8.768;2024-02-26T03:40:39;97366.03;;;9.55;50.75
6506;BME280;3286;49.858;8.768;2024-02-26T03:43:06;97369.75;;;9.61;49.81
6506;BME280;3286;49.858;8.768;2024-02-26T03:45:34;97366.03;;;9.77;50.11
6506;BME280;3286;49.858;8.768;2024-02-26T03:48:00;97368.88;;;9.32;50.09
6506;BME280;3286;49.858;8.768;2024-02-26T03:50:27;97373.97;;;9.55;50.10
6506;BME280;3286;49.858;8.768;2024-02-26T03:52:56;97375.09;;;9.68;50.67
6506;BME280;3286;49.858;8.768;2024-02-26T03:55:23;97367.91;;;8.96;52.56
6506;BME280;3286;49.858;8.768;2024-02-26T03:57:50;97360.16;;;9.32;52.26
6506;BME280;3286;49.858;8.768;2024-02-26T04:00:18;97356.13;;;9.57;51.51
6506;BME280;3286;49.858;8.768;2024-02-26T04:02:46;97356.72;;;9.53;52.74
6506;BME280;3286;49.858;8.768;2024-02-26T04:05:15;97372.28;;;8.74;54.43
6506;BME280;3286;49.858;8.768;2024-02-26T04:07:42;97369.16;;;9.01;54.15
6506;BME280;3286;49.858;8.768;2024-02-26T04:10:09;97376.84;;;8.65;55.22
6506;BME280;3286;49.858;8.768;2024-02-26T04:12:38;97376.78;;;8.59;55.29
6506;BME280;3286;49.858;8.768;2024-02-26T04:15:06;97374.28;;;8.87;54.94
6506;BME280;3286;49.858;8.768;2024-02-26T04:17:33;97368.81;;;9.25;54.06
6506;BME280;3286;49.858;8.768;2024-02-26T04:20:01;97374.75;;;9.12;54.11
6506;BME280;3286;49.858;8.768;2024-02-26T04:22:28;97377.72;;;9.46;53.23
6506;BME280;3286;49.858;8.768;2024-02-26T04:24:55;97387.56;;;9.16;55.04
6506;BME280;3286;49.858;8.768;2024-02-26T04:27:21;97391.44;;;9.20;55.57
6506;BME280;3286;49.858;8.768;2024-02-26T04:29:48;97379.03;;;9.35;54.86
6506;BME280;3286;49.858;8.768;2024-02-26T04:32:14;97383.00;;;9.46;55.07
6506;BME280;3286;49.858;8.768;2024-02-26T04:34:41;97384.00;;;9.23;55.80
6506;BME280;3286;49.858;8.768;2024-02-26T04:37:09;97387.56;;;9.16;55.75
6506;BME280;3286;49.858;8.768;2024-02-26T04:39:36;97383.69;;;9.55;54.83
6506;BME280;3286;49.858;8.768;2024-02-26T04:42:03;97378.44;;;8.96;55.80
6506;BME280;3286;49.858;8.768;2024-02-26T04:44:30;97394.97;;;8.90;57.20
6506;BME280;3286;49.858;8.768;2024-02-26T04:46:56;97375.53;;;9.28;56.14
6506;BME280;3286;49.858;8.768;2024-02-26T04:49:23;97378.47;;;9.18;56.10
6506;BME280;3286;49.858;8.768;2024-02-26T04:51:49;97375.09;;;9.46;55.31
6506;BME280;3286;49.858;8.768;2024-02-26T04:54:17;97379.16;;;9.27;56.20
6506;BME280;3286;49.858;8.768;2024-02-26T04:56:44;97385.06;;;8.92;56.46
6506;BME280;3286;49.858;8.768;2024-02-26T04:59:11;97376.78;;;9.32;55.57
6506;BME280;3286;49.858;8.768;2024-02-26T05:01:37;97379.28;;;9.19;55.57
6506;BME280;3286;49.858;8.768;2024-02-26T05:04:05;97374.38;;;9.16;55.90
6506;BME280;3286;49.858;8.768;2024-02-26T05:06:32;97381.94;;;9.04;56.97
6506;BME280;3286;49.858;8.768;2024-02-26T05:08:59;97373.56;;;9.15;56.60
6506;BME280;3286;49.858;8.768;2024-02-26T05:11:27;97381.94;;;8.67;57.71
6506;BME280;3286;49.858;8.768;2024-02-26T05:13:53;97384.25;;;7.78;58.91
6506;BME280;3286;49.858;8.768;2024-02-26T05:16:20;97386.34;;;8.36;58.13
6506;BME280;3286;49.858;8.768;2024-02-26T05:18:49;97375.44;;;8.09;57.47
6506;BME280;3286;49.858;8.768;2024-02-26T05:21:16;97384.06;;;8.48;56.93
6506;BME280;3286;49.858;8.768;2024-02-26T05:23:43;97395.41;;;7.80;59.10
6506;BME280;3286;49.858;8.768;2024-02-26T05:26:10;97383.16;;;8.41;57.32
6506;BME280;3286;49.858;8.768;2024-02-26T05:28:38;97390.13;;;8.19;58.26
6506;BME280;3286;49.858;8.768;2024-02-26T05:31:05;97385.97;;;8.09;58.22
6506;BME280;3286;49.858;8.768;2024-02-26T05:33:32;97379.47;;;7.82;59.03
6506;BME280;3286;49.858;8.768;2024-02-26T05:35:58;97377.88;;;8.11;58.45
6506;BME280;3286;49.858;8.768;2024-02-26T05:38:29;97382.16;;;8.42;57.60
6506;BME280;3286;49.858;8.768;2024-02-26T05:40:56;97382.44;;;8.17;57.60
6506;BME280;3286;49.858;8.768;2024-02-26T05:43:24;97384.06;;;8.18;58.16
6506;BME280;3286;49.858;8.768;2024-02-26T05:45:53;97386.56;;;7.96;58.61
6506;BME280;3286;49.858;8.768;2024-02-26T05:48:22;97386.31;;;8.06;58.20
6506;BME280;3286;49.858;8.768;2024-02-26T05:50:48;97388.59;;;8.09;58.62
6506;BME280;3286;49.858;8.768;2024-02-26T05:53:15;97393.16;;;8.76;56.66
6506;BME280;3286;49.858;8.768;2024-02-26T05:55:42;97396.72;;;8.68;56.96
6506;BME280;3286;49.858;8.768;2024-02-26T05:58:08;97395.94;;;8.14;59.04
6506;BME280;3286;49.858;8.768;2024-02-26T06:00:35;97401.31;;;7.59;61.04
6506;BME280;3286;49.858;8.768;2024-02-26T06:03:03;97404.28;;;7.79;60.46
6506;BME280;3286;49.858;8.768;2024-02-26T06:05:30;97409.78;;;7.69;60.41
6506;BME280;3286;49.858;8.768;2024-02-26T06:07:56;97408.84;;;7.86;59.61
6506;BME280;3286;49.858;8.768;2024-02-26T06:10:23;97406.84;;;8.26;58.76
6506;BME280;3286;49.858;8.768;2024-02-26T06:12:48;97415.00;;;8.16;59.12
6506;BME280;3286;49.858;8.768;2024-02-26T06:15:15;97417.28;;;7.58;60.55
6506;BME280;3286;49.858;8.768;2024-02-26T06:17:42;97426.84;;;7.97;61.09
6506;BME280;3286;49.858;8.768;2024-02-26T06:20:11;97427.09;;;7.41;62.26
6506;BME280;3286;49.858;8.768;2024-02-26T06:22:39;97426.66;;;7.98;60.32
6506;BME280;3286;49.858;8.768;2024-02-26T06:25:07;97429.50;;;8.27;58.70
6506;BME280;3286;49.858;8.768;2024-02-26T06:27:34;97431.81;;;8.07;59.68
6506;BME280;3286;49.858;8.768;2024-02-26T06:30:01;97443.94;;;8.16;58.78
6506;BME280;3286;49.858;8.768;2024-02-26T06:32:27;97438.97;;;8.36;59.70
6506;BME280;3286;49.858;8.768;2024-02-26T06:34:54;97440.69;;;8.44;58.38
6506;BME280;3286;49.858;8.768;2024-02-26T06:37:25;97445.00;;;8.60;59.11
6506;BME280;3286;49.858;8.768;2024-02-26T06:39:52;97449.09;;;8.63;58.22
6506;BME280;3286;49.858;8.768;2024-02-26T06:42:18;97452.53;;;8.78;58.19
6506;BME280;3286;49.858;8.768;2024-02-26T06:44:45;97464.53;;;8.66;58.18
6506;BME280;3286;49.858;8.768;2024-02-26T06:47:12;97460.44;;;8.93;57.18
6506;BME280;3286;49.858;8.768;2024-02-26T06:49:38;97464.84;;;8.48;58.15
6506;BME280;3286;49.858;8.768;2024-02-26T06:52:05;97474.81;;;8.37;58.66
6506;BME280;3286;49.858;8.768;2024-02-26T06:54:33;97465.16;;;8.68;58.15
6506;BME280;3286;49.858;8.768;2024-02-26T06:57:00;97468.72;;;8.90;57.42
6506;BME280;3286;49.858;8.768;2024-02-26T06:59:26;97472.34;;;8.36;58.36
6506;BME280;3286;49.858;8.768;2024-02-26T07:01:53;97485.31;;;8.61;58.38
6506;BME280;3286;49.858;8.768;2024-02-26T07:04:23;97486.66;;;8.33;59.50
6506;BME280;3286;49.858;8.768;2024-02-26T07:06:49;97490.84;;;8.27;59.81
6506;BME280;3286;49.858;8.768;2024-02-26T07:09:16;97486.03;;;8.69;58.03
6506;BME280;3286;49.858;8.768;2024-02-26T07:11:44;97490.84;;;8.66;57.91
6506;BME280;3286;49.858;8.768;2024-02-26T07:14:12;97493.84;;;8.63;58.71
6506;BME280;3286;49.858;8.768;2024-02-26T07:16:38;97503.31;;;8.87;58.61
6506;BME280;3286;49.858;8.768;2024-02-26T07:19:07;97500.84;;;8.86;58.44
6506;BME280;3286;49.858;8.768;2024-02-26T07:21:34;97505.47;;;8.83;58.35
6506;BME280;3286;49.858;8.768;2024-02-26T07:24:00;97502.66;;;8.70;58.11
6506;BME280;3286;49.858;8.768;2024-02-26T07:26:27;97505.66;;;8.82;57.80
6506;BME280;3286;49.858;8.768;2024-02-26T07:28:57;97504.75;;;8.90;58.04
6506;BME280;3286;49.858;8.768;2024-02-26T07:31:24;97503.00;;;8.97;58.11
6506;BME280;3286;49.858;8.768;2024-02-26T07:33:51;97506.00;;;8.94;57.30
6506;BME280;3286;49.858;8.768;2024-02-26T07:36:17;97507.28;;;8.68;58.38
6506;BME280;3286;49.858;8.768;2024-02-26T07:38:44;97510.94;;;8.82;58.62
6506;BME280;3286;49.858;8.768;2024-02-26T07:41:11;97503.47;;;8.70;58.59
6506;BME280;3286;49.858;8.768;2024-02-26T07:43:39;97509.00;;;8.91;57.83
6506;BME280;3286;49.858;8.768;2024-02-26T07:46:07;97508.84;;;9.07;56.62
6506;BME280;3286;49.858;8.768;2024-02-26T07:48:37;97511.22;;;8.87;58.34
6506;BME280;3286;49.858;8.768;2024-02-26T07:51:04;97509.75;;;8.99;57.40
6506;BME280;3286;49.858;8.768;2024-02-26T07:53:31;97508.38;;;9.04;57.35
6506;BME280;3286;49.858;8.768;2024-02-26T07:55:57;97520.09;;;8.86;58.15
6506;BME280;3286;49.858;8.768;2024-02-26T07:58:24;97522.09;;;8.69;58.99
6506;BME280;3286;49.858;8.768;2024-02-26T08:00:51;97511.75;;;8.97;58.57
6506;BME280;3286;49.858;8.768;2024-02-26T08:03:19;97515.72;;;8.78;58.39
6506;BME280;3286;49.858;8.768;2024-02-26T08:05:46;97515.47;;;8.73;57.90
6506;BME280;3286;49.858;8.768;2024-02-26T08:08:14;97519.75;;;8.89;58.49
6506;BME280;3286;49.858;8.768;2024-02-26T08:10:41;97517.19;;;9.11;58.07
6506;BME280;3286;49.858;8.768;2024-02-26T08:13:08;97526.00;;;9.03;58.21
6506;BME280;3286;49.858;8.768;2024-02-26T08:15:35;97523.53;;;9.47;57.34
6506;BME280;3286;49.858;8.768;2024-02-26T08:18:02;97529.34;;;9.12;58.04
6506;BME280;3286;49.858;8.768;2024-02-26T08:20:31;97524.81;;;8.61;58.74
6506;BME280;3286;49.858;8.768;2024-02-26T08:22:58;97527.53;;;8.82;58.84
6506;BME280;3286;49.858;8.768;2024-02-26T08:25:24;97527.38;;;8.84;59.05
6506;BME280;3286;49.858;8.768;2024-02-26T08:27:51;97535.78;;;8.79;58.68
6506;BME280;3286;49.858;8.768;2024-02-26T08:30:18;97539.09;;;8.96;58.88
6506;BME280;3286;49.858;8.768;2024-02-26T08:32:45;97544.44;;;8.88;58.68
6506;BME280;3286;49.858;8.768;2024-02-26T08:35:12;97542.06;;;8.93;58.13
6506;BME280;3286;49.858;8.768;2024-02-26T08:37:40;97540.19;;;8.25;60.32
6506;BME280;3286;49.858;8.768;2024-02-26T08:40:10;97544.22;;;8.75;58.62
6506;BME280;3286;49.858;8.768;2024-02-26T08:42:37;97539.69;;;8.83;59.62
6506;BME280;3286;49.858;8.768;2024-02-26T08:45:04;97538.72;;;9.15;58.37
6506;BME280;3286;49.858;8.768;2024-02-26T08:47:32;97540.34;;;9.16;58.75
6506;BME280;3286;49.858;8.768;2024-02-26T08:49:58;97534.34;;;9.07;58.69
6506;BME280;3286;49.858;8.768;2024-02-26T08:52:25;97541.00;;;9.18;58.84
6506;BME280;3286;49.858;8.768;2024-02-26T08:54:53;97538.13;;;9.64;57.67
6506;BME280;3286;49.858;8.768;2024-02-26T08:57:19;97543.53;;;9.41;58.11
6506;BME280;3286;49.858;8.768;2024-02-26T08:59:46;97552.22;;;9.56;58.46
6506;BME280;3286;49.858;8.768;2024-02-26T09:02:13;97543.97;;;9.45;58.07
6506;BME280;3286;49.858;8.768;2024-02-26T09:04:39;97553.56;;;7.92;61.58
6506;BME280;3286;49.858;8.768;2024-02-26T09:07:06;97557.50;;;8.20;61.63
6506;BME280;3286;49.858;8.768;2024-02-26T09:09:33;97563.03;;;8.25;61.90
6506;BME280;3286;49.858;8.768;2024-02-26T09:12:01;97555.97;;;8.25;61.80
6506;BME280;3286;49.858;8.768;2024-02-26T09:14:27;97549.03;;;8.09;61.99
6506;BME280;3286;49.858;8.768;2024-02-26T09:16:54;97556.69;;;8.96;59.80
6506;BME280;3286;49.858;8.768;2024-02-26T09:19:21;97561.75;;;8.82;61.21
6506;BME280;3286;49.858;8.768;2024-02-26T09:21:47;97567.31;;;8.49;60.54
6506;BME280;3286;49.858;8.768;2024-02-26T09:24:14;97562.13;;;8.79;60.79
6506;BME280;3286;49.858;8.768;2024-02-26T09:26:41;97560.34;;;9.25;59.03
6506;BME280;3286;49.858;8.768;2024-02-26T09:29:09;97562.09;;;9.69;58.50
6506;BME280;3286;49.858;8.768;2024-02-26T09:31:35;97563.34;;;8.53;61.77
6506;BME280;3286;49.858;8.768;2024-02-26T09:34:02;97561.34;;;9.39;60.02
6506;BME280;3286;49.858;8.768;2024-02-26T09:36:29;97563.41;;;8.83;60.57
6506;BME280;3286;49.858;8.768;2024-02-26T09:38:56;97567.22;;;8.96;59.60
6506;BME280;3286;49.858;8.768;2024-02-26T09:41:22;97573.19;;;8.75;60.65
6506;BME280;3286;49.858;8.768;2024-02-26T09:43:52;97570.16;;;9.31;59.53
6506;BME280;3286;49.858;8.768;2024-02-26T09:46:23;97561.66;;;9.66;58.07
6506;BME280;3286;49.858;8.768;2024-02-26T09:48:51;97583.69;;;9.43;58.85
6506;BME280;3286;49.858;8.768;2024-02-26T09:51:19;97588.56;;;9.61;58.20
6506;BME280;3286;49.858;8.768;2024-02-26T09:53:46;97585.84;;;9.69;58.16
6506;BME280;3286;49.858;8.768;2024-02-26T09:56:14;97587.41;;;9.19;58.12
6506;BME280;3286;49.858;8.768;2024-02-26T09:58:42;97597.31;;;9.17;59.10
6506;BME280;3286;49.858;8.768;2024-02-26T10:01:12;97590.69;;;9.21;58.67
6506;BME280;3286;49.858;8.768;2024-02-26T10:03:42;97605.22;;;8.63;61.54
6506;BME280;3286;49.858;8.768;2024-02-26T10:06:10;97597.34;;;8.78;61.17
6506;BME280;3286;49.858;8.768;2024-02-26T10:08:37;97592.25;;;8.62;62.48
6506;BME280;3286;49.858;8.768;2024-02-26T10:11:04;97593.41;;;8.59;61.85
6506;BME280;3286;49.858;8.768;2024-02-26T10:13:31;97588.97;;;8.75;61.39
6506;BME280;3286;49.858;8.768;2024-02-26T10:15:58;97590.66;;;9.06;60.69
6506;BME280;3286;49.858;8.768;2024-02-26T10:18:25;97589.72;;;8.83;60.77
6506;BME280;3286;49.858;8.768;2024-02-26T10:21:02;97595.22;;;9.42;60.26
6506;BME280;3286;49.858;8.768;2024-02-26T10:23:29;97602.22;;;9.65;59.91
6506;BME280;3286;49.858;8.768;2024-02-26T10:25:55;97602.28;;;9.56;60.25
6506;BME280;3286;49.858;8.768;2024-02-26T10:28:22;97595.31;;;9.64;59.83
6506;BME280;3286;49.858;8.768;2024-02-26T10:30:51;97596.16;;;10.23;57.79
6506;BME280;3286;49.858;8.768;2024-02-26T10:33:18;97595.94;;;10.61;56.98
6506;BME280;3286;49.858;8.768;2024-02-26T10:35:45;97593.69;;;11.15;55.46
6506;BME280;3286;49.858;8.768;2024-02-26T10:38:13;97590.66;;;10.90;55.41
6506;BME280;3286;49.858;8.768;2024-02-26T10:40:45;97594.13;;;11.19;54.82
6506;BME280;3286;49.858;8.768;2024-02-26T10:43:12;97595.25;;;10.52;56.48
6506;BME280;3286;49.858;8.768;2024-02-26T10:45:40;97600.81;;;11.56;54.15
6506;BME280;3286;49.858;8.768;2024-02-26T10:48:09;97605.88;;;11.51;54.14
6506;BME280;3286;49.858;8.768;2024-02-26T10:50:38;97604.47;;;11.49;52.66
6506;BME280;3286;49.858;8.768;2024-02-26T10:53:07;97603.94;;;11.67;53.42
6506;BME280;3286;49.858;8.768;2024-02-26T10:55:43;97608.84;;;10.99;54.20
6506;BME280;3286;49.858;8.768;2024-02-26T10:58:13;97607.97;;;11.56;53.20
6506;BME280;3286;49.858;8.768;2024-02-26T11:00:41;97612.03;;;10.95;55.30
6506;BME280;3286;49.858;8.768;2024-02-26T11:03:09;97617.28;;;11.16;54.77
6506;BME280;3286;49.858;8.768;2024-02-26T11:05:35;97614.44;;;11.18;54.39
6506;BME280;3286;49.858;8.768;2024-02-26T11:08:04;97608.63;;;11.65;53.92
6506;BME280;3286;49.858;8.768;2024-02-26T11:10:31;97610.44;;;11.64;53.48
6506;BME280;3286;49.858;8.768;2024-02-26T11:13:01;97605.66;;;11.95;54.17
6506;BME280;3286;49.858;8.768;2024-02-26T11:15:29;97605.53;;;11.26;54.63
6506;BME280;3286;49.858;8.768;2024-02-26T11:17:58;97609.09;;;11.88;53.95
6506;BME280;3286;49.858;8.768;2024-02-26T11:20:28;97617.97;;;11.67;54.24
6506;BME280;3286;49.858;8.768;2024-02-26T11:22:55;97620.94;;;11.51;53.76
6506;BME280;3286;49.858;8.768;2024-02-26T11:25:21;97620.00;;;12.07;52.81
6506;BME280;3286;49.858;8.768;2024-02-26T11:27:54;97633.03;;;12.09;51.79
6506;BME280;3286;49.858;8.768;2024-02-26T11:30:25;97625.56;;;11.77;52.09
6506;BME280;3286;49.858;8.768;2024-02-26T11:32:53;97629.91;;;11.98;51.33
6506;BME280;3286;49.858;8.768;2024-02-26T11:35:20;97625.34;;;11.37;52.92
6506;BME280;3286;49.858;8.768;2024-02-26T11:37:54;97624.34;;;11.09;53.90
6506;BME280;3286;49.858;8.768;2024-02-26T11:40:22;97630.00;;;11.35;53.78
6506;BME280;3286;49.858;8.768;2024-02-26T11:42:50;97626.81;;;11.88;52.03
6506;BME280;3286;49.858;8.768;2024-02-26T11:45:53;97624.38;;;11.44;53.39
6506;BME280;3286;49.858;8.768;2024-02-26T11:48:24;97622.28;;;11.82;51.95
6506;BME280;3286;49.858;8.768;2024-02-26T11:50:52;97618.50;;;11.98;52.05
6506;BME280;3286;49.858;8.768;2024-02-26T11:53:26;97612.91;;;12.28;50.82
6506;BME280;3286;49.858;8.768;2024-02-26T11:56:21;97617.59;;;11.35;53.10
6506;BME280;3286;49.858;8.768;2024-02-26T11:58:53;97609.06;;;11.82;53.40
6506;BME280;3286;49.858;8.768;2024-02-26T12:01:54;97617.31;;;12.00;51.05
6506;BME280;3286;49.858;8.768;2024-02-26T12:04:26;97616.81;;;11.83;51.39
6506;BME280;3286;49.858;8.768;2024-02-26T12:06:55;97623.88;;;11.27;52.10
6506;BME280;3286;49.858;8.768;2024-02-26T12:09:35;97613.66;;;11.59;51.98
6506;BME280;3286;49.858;8.768;2024-02-26T12:12:02;97615.56;;;11.72;52.91
6506;BME280;3286;49.858;8.768;2024-02-26T12:14:31;97621.94;;;11.85;51.42
6506;BME280;3286;49.858;8.768;2024-02-26T12:17:00;97618.84;;;12.37;50.58
6506;BME280;3286;49.858;8.768;2024-02-26T12:19:27;97623.75;;;12.40;49.79
6506;BME280;3286;49.858;8.768;2024-02-26T12:21:54;97621.50;;;12.50;50.61
6506;BME280;3286;49.858;8.768;2024-02-26T12:24:21;97624.53;;;12.34;50.37
6506;BME280;3286;49.858;8.768;2024-02-26T12:26:48;97635.91;;;11.79;52.76
6506;BME280;3286;49.858;8.768;2024-02-26T12:29:15;97637.53;;;12.22;51.36
6506;BME280;3286;49.858;8.768;2024-02-26T12:31:42;97642.72;;;12.64;49.46
6506;BME280;3286;49.858;8.768;2024-02-26T12:34:10;97641.66;;;12.38;50.60
6506;BME280;3286;49.858;8.768;2024-02-26T12:36:37;97648.38;;;12.40;51.09
6506;BME280;3286;49.858;8.768;2024-02-26T12:39:05;97648.38;;;12.40;50.92
6506;BME280;3286;49.858;8.768;2024-02-26T12:41:32;97647.22;;;12.70;49.71
6506;BME280;3286;49.858;8.768;2024-02-26T12:43:59;97651.16;;;12.05;50.68
6506;BME280;3286;49.858;8.768;2024-02-26T12:46:26;97652.56;;;12.08;51.60
6506;BME280;3286;49.858;8.768;2024-02-26T12:48:55;97648.91;;;12.09;50.91
6506;BME280;3286;49.858;8.768;2024-02-26T12:51:25;97656.38;;;12.54;50.25
6506;BME280;3286;49.858;8.768;2024-02-26T12:53:53;97660.16;;;12.24;51.80
6506;BME280;3286;49.858;8.768;2024-02-26T12:56:21;97656.56;;;11.97;53.40
6506;BME280;3286;49.858;8.768;2024-02-26T12:58:50;97661.66;;;12.54;51.59
6506;BME280;3286;49.858;8.768;2024-02-26T13:01:21;97673.72;;;12.77;50.24
6506;BME280;3286;49.858;8.768;2024-02-26T13:03:49;97675.75;;;12.81;49.45
6506;BME280;3286;49.858;8.768;2024-02-26T13:06:16;97682.44;;;12.57;50.69
6506;BME280;3286;49.858;8.768;2024-02-26T13:08:44;97679.69;;;11.81;51.80
6506;BME280;3286;49.858;8.768;2024-02-26T13:11:11;97680.00;;;12.62;50.31
6506;BME280;3286;49.858;8.768;2024-02-26T13:13:38;97691.81;;;12.53;50.32
6506;BME280;3286;49.858;8.768;2024-02-26T13:16:05;97686.38;;;13.01;49.14
6506;BME280;3286;49.858;8.768;2024-02-26T13:18:33;97684.31;;;12.97;49.84
6506;BME280;3286;49.858;8.768;2024-02-26T13:21:08;97684.09;;;12.65;49.84
6506;BME280;3286;49.858;8.768;2024-02-26T13:23:35;97673.53;;;12.78;49.90
6506;BME280;3286;49.858;8.768;2024-02-26T13:26:03;97669.06;;;13.12;48.58
6506;BME280;3286;49.858;8.768;2024-02-26T13:28:30;97679.66;;;12.10;49.98
6506;BME280;3286;49.858;8.768;2024-02-26T13:30:58;97679.69;;;12.23;50.41
6506;BME280;3286;49.858;8.768;2024-02-26T13:33:26;97683.28;;;12.02;50.71
6506;BME280;3286;49.858;8.768;2024-02-26T13:35:54;97683.75;;;12.12;50.54